sensor_id;sensor_type;location;lat;lon;timestamp;pressure;altitude;pressure_sealevel;temperature;humidity
21361;BME280;10839;43.206;23.550;2023-07-16T00:01:33;97311.03;;;26.17;86.85
21361;BME280;10839;43.206;23.550;2023-07-16T00:03:59;97306.72;;;26.01;86.21
21361;BME280;10839;43.206;23.550;2023-07-16T00:06:24;97304.59;;;25.93;86.66
21361;BME280;10839;43.206;23.550;2023-07-16T00:08:50;97297.66;;;25.95;85.88
21361;BME280;10839;43.206;23.550;2023-07-16T00:11:16;97290.91;;;25.83;86.91
21361;BME280;10839;43.206;23.550;2023-07-16T00:13:42;97289.84;;;25.74;87.40
21361;BME280;10839;43.206;23.550;2023-07-16T00:16:13;97297.03;;;25.75;87.35
21361;BME280;10839;43.206;23.550;2023-07-16T00:18:41;97291.59;;;25.65;88.03
21361;BME280;10839;43.206;23.550;2023-07-16T00:21:07;97286.16;;;25.55;88.71
21361;BME280;10839;43.206;23.550;2023-07-16T00:23:32;97281.16;;;25.62;88.15
21361;BME280;10839;43.206;23.550;2023-07-16T00:25:58;97292.19;;;25.62;88.29
21361;BME280;10839;43.206;23.550;2023-07-16T00:28:24;97295.59;;;25.44;92.98
21361;BME280;10839;43.206;23.550;2023-07-16T00:30:50;97300.00;;;25.45;95.49
21361;BME280;10839;43.206;23.550;2023-07-16T00:33:15;97303.00;;;24.94;100.00
21361;BME280;10839;43.206;23.550;2023-07-16T00:35:50;97308.00;;;24.87;100.00
21361;BME280;10839;43.206;23.550;2023-07-16T00:38:19;97284.94;;;24.63;100.00
21361;BME280;10839;43.206;23.550;2023-07-16T00:40:48;97293.19;;;24.78;100.00
21361;BME280;10839;43.206;23.550;2023-07-16T00:43:14;97291.00;;;24.65;100.00
21361;BME280;10839;43.206;23.550;2023-07-16T00:45:41;97278.31;;;24.64;100.00
21361;BME280;10839;43.206;23.550;2023-07-16T00:48:07;97285.47;;;24.75;100.00
21361;BME280;10839;43.206;23.550;2023-07-16T00:50:34;97278.31;;;24.74;100.00
21361;BME280;10839;43.206;23.550;2023-07-16T00:53:09;97295.66;;;24.80;100.00
21361;BME280;10839;43.206;23.550;2023-07-16T00:55:36;97285.50;;;24.70;100.00
21361;BME280;10839;43.206;23.550;2023-07-16T00:58:04;97277.75;;;24.67;100.00
21361;BME280;10839;43.206;23.550;2023-07-16T01:00:32;97289.06;;;24.66;100.00
21361;BME280;10839;43.206;23.550;2023-07-16T01:02:58;97285.50;;;24.70;100.00
21361;BME280;10839;43.206;23.550;2023-07-16T01:05:27;97282.22;;;24.58;100.00
21361;BME280;10839;43.206;23.550;2023-07-16T01:08:00;97284.41;;;24.61;100.00
21361;BME280;10839;43.206;23.550;2023-07-16T01:10:29;97279.38;;;24.83;100.00
21361;BME280;10839;43.206;23.550;2023-07-16T01:12:57;97276.34;;;24.85;100.00
21361;BME280;10839;43.206;23.550;2023-07-16T01:15:23;97276.88;;;24.92;100.00
21361;BME280;10839;43.206;23.550;2023-07-16T01:17:49;97269.97;;;24.94;98.98
21361;BME280;10839;43.206;23.550;2023-07-16T01:20:15;97275.28;;;24.71;99.42
21361;BME280;10839;43.206;23.550;2023-07-16T01:30:44;97264.91;;;25.11;100.00
21361;BME280;10839;43.206;23.550;2023-07-16T01:33:13;97260.03;;;24.98;100.00
21361;BME280;10839;43.206;23.550;2023-07-16T01:35:40;97261.16;;;24.92;98.95
21361;BME280;10839;43.206;23.550;2023-07-16T01:38:09;97260.50;;;25.10;98.62
21361;BME280;10839;43.206;23.550;2023-07-16T01:40:35;97260.00;;;25.08;99.71
21361;BME280;10839;43.206;23.550;2023-07-16T01:43:01;97258.25;;;25.17;98.88
21361;BME280;10839;43.206;23.550;2023-07-16T01:45:27;97267.66;;;25.16;98.14
21361;BME280;10839;43.206;23.550;2023-07-16T01:47:59;97265.81;;;25.02;100.00
21361;BME280;10839;43.206;23.550;2023-07-16T01:50:27;97253.94;;;25.06;99.26
21361;BME280;10839;43.206;23.550;2023-07-16T01:52:52;97257.84;;;25.78;92.90
21361;BME280;10839;43.206;23.550;2023-07-16T01:55:18;97253.78;;;25.99;89.29
21361;BME280;10839;43.206;23.550;2023-07-16T01:57:44;97255.03;;;25.83;88.99
21361;BME280;10839;43.206;23.550;2023-07-16T02:00:10;97254.97;;;25.93;89.51
21361;BME280;10839;43.206;23.550;2023-07-16T02:02:46;97248.13;;;25.85;92.22
21361;BME280;10839;43.206;23.550;2023-07-16T02:05:15;97253.66;;;25.52;95.68
21361;BME280;10839;43.206;23.550;2023-07-16T02:07:40;97254.34;;;25.29;99.70
21361;BME280;10839;43.206;23.550;2023-07-16T02:10:06;97259.94;;;25.18;100.00
21361;BME280;10839;43.206;23.550;2023-07-16T02:12:33;97260.00;;;25.08;100.00
21361;BME280;10839;43.206;23.550;2023-07-16T02:14:58;97249.97;;;24.69;100.00
21361;BME280;10839;43.206;23.550;2023-07-16T02:17:24;97243.09;;;24.71;100.00
21361;BME280;10839;43.206;23.550;2023-07-16T02:19:50;97261.06;;;25.07;100.00
21361;BME280;10839;43.206;23.550;2023-07-16T02:22:16;97250.78;;;24.74;100.00
21361;BME280;10839;43.206;23.550;2023-07-16T02:24:42;97256.56;;;24.78;100.00
21361;BME280;10839;43.206;23.550;2023-07-16T02:27:08;97257.41;;;24.73;100.00
21361;BME280;10839;43.206;23.550;2023-07-16T02:29:34;97261.81;;;24.64;100.00
21361;BME280;10839;43.206;23.550;2023-07-16T02:32:00;97261.28;;;24.52;100.00
21361;BME280;10839;43.206;23.550;2023-07-16T02:34:25;97271.75;;;24.55;100.00
21361;BME280;10839;43.206;23.550;2023-07-16T02:36:53;97264.56;;;24.64;100.00
21361;BME280;10839;43.206;23.550;2023-07-16T02:39:19;97261.78;;;24.74;100.00
21361;BME280;10839;43.206;23.550;2023-07-16T02:41:45;97267.81;;;24.86;100.00
21361;BME280;10839;43.206;23.550;2023-07-16T02:44:11;97269.41;;;24.92;100.00
21361;BME280;10839;43.206;23.550;2023-07-16T02:46:37;97272.19;;;24.87;99.90
21361;BME280;10839;43.206;23.550;2023-07-16T02:49:03;97270.31;;;24.78;98.43
21361;BME280;10839;43.206;23.550;2023-07-16T02:51:29;97274.94;;;24.87;97.30
21361;BME280;10839;43.206;23.550;2023-07-16T02:53:55;97267.84;;;24.66;98.23
21361;BME280;10839;43.206;23.550;2023-07-16T02:56:21;97276.13;;;24.71;97.88
21361;BME280;10839;43.206;23.550;2023-07-16T02:58:47;97275.59;;;24.69;97.67
21361;BME280;10839;43.206;23.550;2023-07-16T03:01:14;97281.06;;;24.74;97.48
21361;BME280;10839;43.206;23.550;2023-07-16T03:03:40;97275.28;;;24.71;97.26
21361;BME280;10839;43.206;23.550;2023-07-16T03:06:07;97281.63;;;24.71;97.54
21361;BME280;10839;43.206;23.550;2023-07-16T03:08:34;97278.34;;;24.69;96.92
21361;BME280;10839;43.206;23.550;2023-07-16T03:11:00;97281.66;;;24.61;98.49
21361;BME280;10839;43.206;23.550;2023-07-16T03:13:26;97287.81;;;24.18;100.00
21361;BME280;10839;43.206;23.550;2023-07-16T03:15:54;97291.41;;;24.14;100.00
21361;BME280;10839;43.206;23.550;2023-07-16T03:18:21;97290.56;;;24.23;100.00
21361;BME280;10839;43.206;23.550;2023-07-16T03:20:46;97287.16;;;24.61;98.87
21361;BME280;10839;43.206;23.550;2023-07-16T03:23:13;97291.22;;;24.79;97.16
21361;BME280;10839;43.206;23.550;2023-07-16T03:25:39;97290.88;;;24.95;95.65
21361;BME280;10839;43.206;23.550;2023-07-16T03:28:05;97300.63;;;25.37;92.97
21361;BME280;10839;43.206;23.550;2023-07-16T03:30:31;97293.81;;;25.63;90.12
21361;BME280;10839;43.206;23.550;2023-07-16T03:32:58;97300.66;;;25.99;88.58
21361;BME280;10839;43.206;23.550;2023-07-16T03:35:25;97310.59;;;26.33;87.93
21361;BME280;10839;43.206;23.550;2023-07-16T03:37:51;97304.69;;;26.45;87.31
21361;BME280;10839;43.206;23.550;2023-07-16T03:40:21;97299.25;;;26.87;83.19
21361;BME280;10839;43.206;23.550;2023-07-16T03:42:47;97307.44;;;27.39;81.90
21361;BME280;10839;43.206;23.550;2023-07-16T03:45:13;97307.41;;;27.77;78.94
21361;BME280;10839;43.206;23.550;2023-07-16T03:47:41;97304.06;;;28.12;78.17
21361;BME280;10839;43.206;23.550;2023-07-16T03:50:07;97307.19;;;28.24;75.65
21361;BME280;10839;43.206;23.550;2023-07-16T03:52:33;97310.84;;;28.06;76.81
21361;BME280;10839;43.206;23.550;2023-07-16T03:54:59;97318.53;;;28.09;76.86
21361;BME280;10839;43.206;23.550;2023-07-16T03:57:27;97310.38;;;28.49;74.13
21361;BME280;10839;43.206;23.550;2023-07-16T03:59:54;97314.84;;;28.45;74.31
21361;BME280;10839;43.206;23.550;2023-07-16T04:02:20;97310.97;;;28.60;73.72
21361;BME280;10839;43.206;23.550;2023-07-16T04:04:46;97311.31;;;28.99;71.86
21361;BME280;10839;43.206;23.550;2023-07-16T04:07:12;97312.41;;;29.52;69.62
21361;BME280;10839;43.206;23.550;2023-07-16T04:09:39;97311.72;;;29.20;70.53
21361;BME280;10839;43.206;23.550;2023-07-16T04:12:06;97312.75;;;29.37;70.29
21361;BME280;10839;43.206;23.550;2023-07-16T04:14:32;97314.50;;;30.49;65.49
21361;BME280;10839;43.206;23.550;2023-07-16T04:16:58;97316.44;;;31.18;62.22
21361;BME280;10839;43.206;23.550;2023-07-16T04:19:24;97317.28;;;31.18;61.11
21361;BME280;10839;43.206;23.550;2023-07-16T04:21:50;97320.56;;;31.20;59.67
21361;BME280;10839;43.206;23.550;2023-07-16T04:24:16;97321.34;;;31.21;59.57
21361;BME280;10839;43.206;23.550;2023-07-16T04:26:41;97319.69;;;31.59;57.74
21361;BME280;10839;43.206;23.550;2023-07-16T04:29:08;97319.53;;;31.64;57.00
21361;BME280;10839;43.206;23.550;2023-07-16T04:31:34;97322.50;;;31.93;55.42
21361;BME280;10839;43.206;23.550;2023-07-16T04:34:00;97326.25;;;32.49;53.74
21361;BME280;10839;43.206;23.550;2023-07-16T04:36:26;97322.34;;;32.15;54.47
21361;BME280;10839;43.206;23.550;2023-07-16T04:38:52;97324.78;;;32.42;53.75
21361;BME280;10839;43.206;23.550;2023-07-16T04:41:17;97331.34;;;32.47;52.75
21361;BME280;10839;43.206;23.550;2023-07-16T04:43:43;97324.63;;;34.10;48.76
21361;BME280;10839;43.206;23.550;2023-07-16T04:46:09;97322.00;;;34.46;47.70
21361;BME280;10839;43.206;23.550;2023-07-16T04:48:36;97335.72;;;35.41;45.72
21361;BME280;10839;43.206;23.550;2023-07-16T04:51:02;97336.84;;;36.00;44.83
21361;BME280;10839;43.206;23.550;2023-07-16T04:53:28;97335.44;;;36.34;43.93
21361;BME280;10839;43.206;23.550;2023-07-16T04:55:54;97333.47;;;36.77;42.84
21361;BME280;10839;43.206;23.550;2023-07-16T04:58:20;97341.88;;;37.20;43.18
21361;BME280;10839;43.206;23.550;2023-07-16T05:00:46;97342.78;;;37.56;41.59
21361;BME280;10839;43.206;23.550;2023-07-16T05:03:12;97343.06;;;38.01;40.77
21361;BME280;10839;43.206;23.550;2023-07-16T05:05:38;97338.81;;;38.26;40.02
21361;BME280;10839;43.206;23.550;2023-07-16T05:08:04;97347.94;;;38.04;40.49
21361;BME280;10839;43.206;23.550;2023-07-16T05:10:30;97332.81;;;38.47;39.64
21361;BME280;10839;43.206;23.550;2023-07-16T05:12:55;97345.63;;;38.82;38.83
21361;BME280;10839;43.206;23.550;2023-07-16T05:15:21;97346.91;;;39.07;38.47
21361;BME280;10839;43.206;23.550;2023-07-16T05:17:47;97340.78;;;39.47;37.92
21361;BME280;10839;43.206;23.550;2023-07-16T05:20:13;97341.91;;;39.42;37.85
21361;BME280;10839;43.206;23.550;2023-07-16T05:22:39;97345.84;;;39.87;37.08
21361;BME280;10839;43.206;23.550;2023-07-16T05:25:05;97344.03;;;40.27;36.42
21361;BME280;10839;43.206;23.550;2023-07-16T05:27:31;97345.13;;;40.49;35.82
21361;BME280;10839;43.206;23.550;2023-07-16T05:29:56;97349.34;;;41.82;33.91
21361;BME280;10839;43.206;23.550;2023-07-16T05:32:23;97357.00;;;40.98;35.09
21361;BME280;10839;43.206;23.550;2023-07-16T05:34:48;97341.06;;;41.13;34.91
21361;BME280;10839;43.206;23.550;2023-07-16T05:37:14;97356.47;;;41.19;34.98
21361;BME280;10839;43.206;23.550;2023-07-16T05:39:40;97352.94;;;41.79;33.79
21361;BME280;10839;43.206;23.550;2023-07-16T05:42:06;97351.16;;;41.54;34.07
21361;BME280;10839;43.206;23.550;2023-07-16T05:44:33;97353.41;;;41.41;34.30
21361;BME280;10839;43.206;23.550;2023-07-16T05:46:59;97351.53;;;41.12;34.12
21361;BME280;10839;43.206;23.550;2023-07-16T05:49:26;97353.72;;;41.76;33.39
21361;BME280;10839;43.206;23.550;2023-07-16T05:51:52;97347.66;;;41.27;33.76
21361;BME280;10839;43.206;23.550;2023-07-16T05:54:19;97357.28;;;41.66;33.60
21361;BME280;10839;43.206;23.550;2023-07-16T05:56:45;97352.75;;;42.06;33.23
21361;BME280;10839;43.206;23.550;2023-07-16T05:59:11;97353.44;;;42.57;32.53
21361;BME280;10839;43.206;23.550;2023-07-16T06:01:37;97344.88;;;42.36;32.11
21361;BME280;10839;43.206;23.550;2023-07-16T06:04:02;97347.94;;;41.55;33.92
21361;BME280;10839;43.206;23.550;2023-07-16T06:06:30;97355.69;;;42.27;32.71
21361;BME280;10839;43.206;23.550;2023-07-16T06:08:56;97356.06;;;42.18;32.91
21361;BME280;10839;43.206;23.550;2023-07-16T06:11:22;97358.72;;;41.94;32.86
21361;BME280;10839;43.206;23.550;2023-07-16T06:13:48;97351.75;;;42.42;32.94
21361;BME280;10839;43.206;23.550;2023-07-16T06:16:14;97347.81;;;42.71;32.23
21361;BME280;10839;43.206;23.550;2023-07-16T06:18:40;97350.97;;;41.83;32.92
21361;BME280;10839;43.206;23.550;2023-07-16T06:21:06;97353.84;;;41.91;33.14
21361;BME280;10839;43.206;23.550;2023-07-16T06:23:31;97354.00;;;42.12;33.10
21361;BME280;10839;43.206;23.550;2023-07-16T06:25:57;97359.34;;;43.27;31.99
21361;BME280;10839;43.206;23.550;2023-07-16T06:28:24;97359.34;;;41.73;33.46
21361;BME280;10839;43.206;23.550;2023-07-16T06:30:50;97357.47;;;42.49;32.17
21361;BME280;10839;43.206;23.550;2023-07-16T06:33:18;97355.53;;;41.99;33.29
21361;BME280;10839;43.206;23.550;2023-07-16T06:35:45;97364.22;;;41.72;33.54
21361;BME280;10839;43.206;23.550;2023-07-16T06:38:13;97356.94;;;41.71;33.51
21361;BME280;10839;43.206;23.550;2023-07-16T06:40:45;97350.56;;;40.64;35.48
21361;BME280;10839;43.206;23.550;2023-07-16T06:43:11;97356.91;;;39.73;36.72
21361;BME280;10839;43.206;23.550;2023-07-16T06:45:37;97360.81;;;39.65;37.20
21361;BME280;10839;43.206;23.550;2023-07-16T06:48:03;97364.06;;;39.21;38.37
21361;BME280;10839;43.206;23.550;2023-07-16T06:50:29;97352.25;;;39.12;39.17
21361;BME280;10839;43.206;23.550;2023-07-16T06:52:54;97349.47;;;38.74;39.71
21361;BME280;10839;43.206;23.550;2023-07-16T06:55:20;97354.06;;;38.63;40.56
21361;BME280;10839;43.206;23.550;2023-07-16T06:57:46;97356.81;;;38.79;40.14
21361;BME280;10839;43.206;23.550;2023-07-16T07:00:12;97347.22;;;38.83;40.54
21361;BME280;10839;43.206;23.550;2023-07-16T07:02:38;97357.19;;;38.77;40.33
21361;BME280;10839;43.206;23.550;2023-07-16T07:05:04;97346.31;;;38.98;40.01
21361;BME280;10839;43.206;23.550;2023-07-16T07:07:30;97358.94;;;39.04;40.15
21361;BME280;10839;43.206;23.550;2023-07-16T07:09:56;97350.25;;;38.94;40.66
21361;BME280;10839;43.206;23.550;2023-07-16T07:12:21;97355.88;;;39.13;40.19
21361;BME280;10839;43.206;23.550;2023-07-16T07:14:47;97352.69;;;39.14;39.84
21361;BME280;10839;43.206;23.550;2023-07-16T07:17:14;97360.59;;;38.86;40.55
21361;BME280;10839;43.206;23.550;2023-07-16T07:19:41;97354.44;;;39.22;39.79
21361;BME280;10839;43.206;23.550;2023-07-16T07:22:07;97359.94;;;39.61;39.56
21361;BME280;10839;43.206;23.550;2023-07-16T07:24:33;97364.88;;;39.44;39.75
21361;BME280;10839;43.206;23.550;2023-07-16T07:26:59;97362.88;;;39.22;39.38
21361;BME280;10839;43.206;23.550;2023-07-16T07:29:24;97361.22;;;39.21;39.48
21361;BME280;10839;43.206;23.550;2023-07-16T07:31:53;97361.34;;;39.47;38.52
21361;BME280;10839;43.206;23.550;2023-07-16T07:34:19;97357.84;;;39.35;38.78
21361;BME280;10839;43.206;23.550;2023-07-16T07:36:45;97358.00;;;39.19;39.47
21361;BME280;10839;43.206;23.550;2023-07-16T07:39:11;97352.91;;;39.28;39.00
21361;BME280;10839;43.206;23.550;2023-07-16T07:41:39;97361.88;;;38.92;39.80
21361;BME280;10839;43.206;23.550;2023-07-16T07:44:04;97358.63;;;38.90;39.91
21361;BME280;10839;43.206;23.550;2023-07-16T07:46:30;97365.28;;;39.01;39.70
21361;BME280;10839;43.206;23.550;2023-07-16T07:48:56;97364.78;;;38.38;41.30
21361;BME280;10839;43.206;23.550;2023-07-16T07:51:22;97357.63;;;38.79;40.48
21361;BME280;10839;43.206;23.550;2023-07-16T07:53:48;97353.59;;;38.80;41.24
21361;BME280;10839;43.206;23.550;2023-07-16T07:56:14;97352.16;;;39.31;40.26
21361;BME280;10839;43.206;23.550;2023-07-16T07:58:40;97353.44;;;39.11;40.16
21361;BME280;10839;43.206;23.550;2023-07-16T08:01:06;97362.00;;;39.18;40.42
21361;BME280;10839;43.206;23.550;2023-07-16T08:03:33;97364.50;;;39.23;39.84
21361;BME280;10839;43.206;23.550;2023-07-16T08:05:59;97367.97;;;38.94;39.82
21361;BME280;10839;43.206;23.550;2023-07-16T08:08:25;97366.94;;;38.83;40.78
21361;BME280;10839;43.206;23.550;2023-07-16T08:10:52;97362.31;;;39.13;40.16
21361;BME280;10839;43.206;23.550;2023-07-16T08:13:18;97371.34;;;39.22;40.16
21361;BME280;10839;43.206;23.550;2023-07-16T08:15:44;97366.94;;;39.25;39.68
21361;BME280;10839;43.206;23.550;2023-07-16T08:18:10;97370.06;;;39.42;39.04
21361;BME280;10839;43.206;23.550;2023-07-16T08:20:36;97364.94;;;39.25;39.35
21361;BME280;10839;43.206;23.550;2023-07-16T08:23:02;97367.75;;;39.48;39.13
21361;BME280;10839;43.206;23.550;2023-07-16T08:25:28;97372.19;;;39.26;38.63
21361;BME280;10839;43.206;23.550;2023-07-16T08:27:54;97375.31;;;39.21;38.93
21361;BME280;10839;43.206;23.550;2023-07-16T08:30:20;97377.31;;;39.43;38.62
21361;BME280;10839;43.206;23.550;2023-07-16T08:32:46;97374.78;;;39.12;39.54
21361;BME280;10839;43.206;23.550;2023-07-16T08:35:12;97380.44;;;39.84;38.26
21361;BME280;10839;43.206;23.550;2023-07-16T08:37:43;97374.81;;;40.36;37.10
21361;BME280;10839;43.206;23.550;2023-07-16T08:40:10;97368.91;;;40.48;36.79
21361;BME280;10839;43.206;23.550;2023-07-16T08:42:37;97371.25;;;39.41;38.20
21361;BME280;10839;43.206;23.550;2023-07-16T08:45:06;97369.69;;;39.21;38.99
21361;BME280;10839;43.206;23.550;2023-07-16T08:47:33;97370.84;;;39.39;38.96
21361;BME280;10839;43.206;23.550;2023-07-16T08:50:00;97366.63;;;39.30;40.04
21361;BME280;10839;43.206;23.550;2023-07-16T08:52:27;97368.06;;;39.20;39.57
21361;BME280;10839;43.206;23.550;2023-07-16T08:54:54;97374.41;;;39.14;39.38
21361;BME280;10839;43.206;23.550;2023-07-16T08:57:20;97361.56;;;39.16;39.32
21361;BME280;10839;43.206;23.550;2023-07-16T08:59:48;97368.25;;;39.76;38.72
21361;BME280;10839;43.206;23.550;2023-07-16T09:02:19;97350.22;;;39.35;39.99
21361;BME280;10839;43.206;23.550;2023-07-16T09:04:48;97368.00;;;40.11;38.26
21361;BME280;10839;43.206;23.550;2023-07-16T09:07:15;97368.13;;;39.69;38.77
21361;BME280;10839;43.206;23.550;2023-07-16T09:09:41;97364.06;;;39.67;39.12
21361;BME280;10839;43.206;23.550;2023-07-16T09:12:12;97355.63;;;39.93;39.14
21361;BME280;10839;43.206;23.550;2023-07-16T09:14:40;97346.31;;;39.89;39.01
21361;BME280;10839;43.206;23.550;2023-07-16T09:17:07;97356.56;;;39.51;39.11
21361;BME280;10839;43.206;23.550;2023-07-16T09:19:33;97356.59;;;40.04;38.83
21361;BME280;10839;43.206;23.550;2023-07-16T09:21:59;97348.69;;;40.13;38.82
21361;BME280;10839;43.206;23.550;2023-07-16T09:24:25;97361.19;;;39.40;39.75
21361;BME280;10839;43.206;23.550;2023-07-16T09:26:52;97347.69;;;39.49;40.13
21361;BME280;10839;43.206;23.550;2023-07-16T09:29:19;97362.69;;;39.83;40.14
21361;BME280;10839;43.206;23.550;2023-07-16T09:32:12;97361.13;;;39.86;39.75
21361;BME280;10839;43.206;23.550;2023-07-16T09:34:37;97348.66;;;39.61;39.15
21361;BME280;10839;43.206;23.550;2023-07-16T09:37:04;97352.78;;;39.67;39.44
21361;BME280;10839;43.206;23.550;2023-07-16T09:39:32;97363.84;;;39.53;39.93
21361;BME280;10839;43.206;23.550;2023-07-16T09:41:58;97353.53;;;39.64;40.17
21361;BME280;10839;43.206;23.550;2023-07-16T09:44:24;97346.03;;;39.48;40.00
21361;BME280;10839;43.206;23.550;2023-07-16T09:46:50;97357.19;;;39.00;40.93
21361;BME280;10839;43.206;23.550;2023-07-16T09:49:16;97340.91;;;38.67;42.20
21361;BME280;10839;43.206;23.550;2023-07-16T09:51:43;97346.53;;;38.90;41.84
21361;BME280;10839;43.206;23.550;2023-07-16T09:54:13;97350.41;;;39.23;41.06
21361;BME280;10839;43.206;23.550;2023-07-16T09:56:45;97344.59;;;38.71;40.68
21361;BME280;10839;43.206;23.550;2023-07-16T09:59:16;97338.75;;;38.61;41.18
21361;BME280;10839;43.206;23.550;2023-07-16T10:01:42;97347.19;;;38.07;41.75
21361;BME280;10839;43.206;23.550;2023-07-16T10:04:12;97353.56;;;37.85;43.76
21361;BME280;10839;43.206;23.550;2023-07-16T10:06:52;97350.50;;;37.43;44.99
21361;BME280;10839;43.206;23.550;2023-07-16T10:09:42;97348.31;;;37.52;45.75
21361;BME280;10839;43.206;23.550;2023-07-16T10:12:17;97334.16;;;38.33;43.79
21361;BME280;10839;43.206;23.550;2023-07-16T10:14:47;97346.66;;;37.82;44.54
21361;BME280;10839;43.206;23.550;2023-07-16T10:17:19;97336.13;;;38.14;43.54
21361;BME280;10839;43.206;23.550;2023-07-16T10:20:02;97344.22;;;38.00;44.13
21361;BME280;10839;43.206;23.550;2023-07-16T10:22:39;97329.34;;;38.34;43.19
21361;BME280;10839;43.206;23.550;2023-07-16T10:27:47;97336.47;;;37.28;45.52
21361;BME280;10839;43.206;23.550;2023-07-16T10:30:14;97328.81;;;37.75;44.59
21361;BME280;10839;43.206;23.550;2023-07-16T10:32:40;97332.56;;;37.16;45.36
21361;BME280;10839;43.206;23.550;2023-07-16T10:35:07;97335.38;;;36.73;46.51
21361;BME280;10839;43.206;23.550;2023-07-16T10:37:37;97335.34;;;36.58;46.83
21361;BME280;10839;43.206;23.550;2023-07-16T10:40:04;97318.28;;;36.78;47.03
21361;BME280;10839;43.206;23.550;2023-07-16T10:42:31;97329.75;;;37.16;46.28
21361;BME280;10839;43.206;23.550;2023-07-16T10:45:03;97329.28;;;36.83;47.74
21361;BME280;10839;43.206;23.550;2023-07-16T10:47:52;97327.38;;;37.18;47.13
21361;BME280;10839;43.206;23.550;2023-07-16T10:50:20;97324.81;;;37.13;47.11
21361;BME280;10839;43.206;23.550;2023-07-16T10:52:55;97331.03;;;37.35;45.34
21361;BME280;10839;43.206;23.550;2023-07-16T10:55:22;97327.31;;;37.46;45.92
21361;BME280;10839;43.206;23.550;2023-07-16T10:57:49;97329.75;;;37.48;46.06
21361;BME280;10839;43.206;23.550;2023-07-16T11:00:17;97324.09;;;36.85;47.23
21361;BME280;10839;43.206;23.550;2023-07-16T11:02:43;97328.00;;;36.53;48.17
21361;BME280;10839;43.206;23.550;2023-07-16T11:05:14;97326.00;;;36.26;48.17
21361;BME280;10839;43.206;23.550;2023-07-16T11:07:47;97326.13;;;36.18;48.94
21361;BME280;10839;43.206;23.550;2023-07-16T11:10:16;97327.81;;;36.62;48.26
21361;BME280;10839;43.206;23.550;2023-07-16T11:12:42;97323.94;;;37.09;48.56
21361;BME280;10839;43.206;23.550;2023-07-16T11:15:09;97322.47;;;37.15;48.17
21361;BME280;10839;43.206;23.550;2023-07-16T11:17:37;97312.34;;;36.95;48.22
21361;BME280;10839;43.206;23.550;2023-07-16T11:20:07;97314.06;;;36.57;48.66
21361;BME280;10839;43.206;23.550;2023-07-16T11:22:37;97314.91;;;35.90;50.02
21361;BME280;10839;43.206;23.550;2023-07-16T11:25:26;97304.31;;;36.11;50.10
21361;BME280;10839;43.206;23.550;2023-07-16T11:27:56;97303.56;;;36.26;49.91
21361;BME280;10839;43.206;23.550;2023-07-16T11:30:23;97302.88;;;36.17;48.79
21361;BME280;10839;43.206;23.550;2023-07-16T11:32:50;97298.28;;;35.97;50.27
21361;BME280;10839;43.206;23.550;2023-07-16T11:35:17;97297.38;;;35.93;50.64
21361;BME280;10839;43.206;23.550;2023-07-16T11:37:45;97297.69;;;36.03;50.62
21361;BME280;10839;43.206;23.550;2023-07-16T11:40:15;97295.03;;;35.95;50.57
21361;BME280;10839;43.206;23.550;2023-07-16T11:42:42;97291.56;;;35.86;50.92
21361;BME280;10839;43.206;23.550;2023-07-16T11:45:35;97300.44;;;35.64;51.38
21361;BME280;10839;43.206;23.550;2023-07-16T11:48:02;97291.09;;;35.72;50.63
21361;BME280;10839;43.206;23.550;2023-07-16T11:50:29;97298.34;;;35.73;50.91
21361;BME280;10839;43.206;23.550;2023-07-16T11:52:58;97285.06;;;35.58;50.84
21361;BME280;10839;43.206;23.550;2023-07-16T11:55:25;97289.53;;;35.47;51.23
21361;BME280;10839;43.206;23.550;2023-07-16T11:57:51;97283.06;;;35.22;51.92
21361;BME280;10839;43.206;23.550;2023-07-16T12:00:17;97287.47;;;35.83;50.61
21361;BME280;10839;43.206;23.550;2023-07-16T12:02:43;97296.63;;;36.08;50.29
21361;BME280;10839;43.206;23.550;2023-07-16T12:05:19;97295.44;;;36.09;50.22
21361;BME280;10839;43.206;23.550;2023-07-16T12:07:46;97293.75;;;35.92;50.38
21361;BME280;10839;43.206;23.550;2023-07-16T12:10:12;97278.13;;;35.91;50.20
21361;BME280;10839;43.206;23.550;2023-07-16T12:12:38;97294.66;;;35.57;51.62
21361;BME280;10839;43.206;23.550;2023-07-16T12:15:06;97289.69;;;35.78;50.55
21361;BME280;10839;43.206;23.550;2023-07-16T12:17:32;97306.06;;;35.28;51.81
21361;BME280;10839;43.206;23.550;2023-07-16T12:19:58;97292.88;;;35.52;51.42
21361;BME280;10839;43.206;23.550;2023-07-16T12:22:24;97297.66;;;35.28;51.75
21361;BME280;10839;43.206;23.550;2023-07-16T12:24:50;97298.00;;;35.62;51.32
21361;BME280;10839;43.206;23.550;2023-07-16T12:27:18;97295.22;;;36.02;50.54
21361;BME280;10839;43.206;23.550;2023-07-16T12:29:44;97300.03;;;36.29;50.34
21361;BME280;10839;43.206;23.550;2023-07-16T12:32:10;97290.50;;;36.18;49.28
21361;BME280;10839;43.206;23.550;2023-07-16T12:34:36;97290.06;;;36.16;49.04
21361;BME280;10839;43.206;23.550;2023-07-16T12:37:02;97299.19;;;36.41;49.46
21361;BME280;10839;43.206;23.550;2023-07-16T12:39:28;97293.22;;;36.42;48.40
21361;BME280;10839;43.206;23.550;2023-07-16T12:41:54;97293.81;;;36.08;49.05
21361;BME280;10839;43.206;23.550;2023-07-16T12:44:20;97294.41;;;35.50;49.57
21361;BME280;10839;43.206;23.550;2023-07-16T12:46:46;97284.84;;;35.51;49.96
21361;BME280;10839;43.206;23.550;2023-07-16T12:49:12;97287.41;;;35.44;50.46
21361;BME280;10839;43.206;23.550;2023-07-16T12:51:38;97284.91;;;35.78;49.63
21361;BME280;10839;43.206;23.550;2023-07-16T12:54:05;97284.78;;;35.75;49.37
21361;BME280;10839;43.206;23.550;2023-07-16T12:56:31;97279.94;;;35.48;50.31
21361;BME280;10839;43.206;23.550;2023-07-16T12:58:58;97284.09;;;35.78;50.33